sensor_id;sensor_type;location;lat;lon;timestamp;P1;durP1;ratioP1;P2;durP2;ratioP2
78344;SDS011;67620;51.134;6.548;2023-04-07T00:02:10;20.75;;;11.70;;
78344;SDS011;67620;51.134;6.548;2023-04-07T00:04:36;21.23;;;11.45;;
78344;SDS011;67620;51.134;6.548;2023-04-07T00:07:02;18.30;;;11.38;;
78344;SDS011;67620;51.134;6.548;2023-04-07T00:09:27;18.67;;;12.23;;
78344;SDS011;67620;51.134;6.548;2023-04-07T00:11:53;20.00;;;12.10;;
78344;SDS011;67620;51.134;6.548;2023-04-07T00:14:18;23.83;;;13.40;;
78344;SDS011;67620;51.134;6.548;2023-04-07T00:16:44;27.85;;;15.20;;
78344;SDS011;67620;51.134;6.548;2023-04-07T00:19:09;25.05;;;14.18;;
78344;SDS011;67620;51.134;6.548;2023-04-07T00:21:35;29.83;;;17.27;;
78344;SDS011;67620;51.134;6.548;2023-04-07T00:24:01;33.65;;;18.55;;
78344;SDS011;67620;51.134;6.548;2023-04-07T00:26:26;33.38;;;17.25;;
78344;SDS011;67620;51.134;6.548;2023-04-07T00:28:55;30.05;;;17.52;;
78344;SDS011;67620;51.134;6.548;2023-04-07T00:31:21;33.35;;;19.17;;
78344;SDS011;67620;51.134;6.548;2023-04-07T00:33:47;34.33;;;19.77;;
78344;SDS011;67620;51.134;6.548;2023-04-07T00:36:13;32.83;;;18.80;;
78344;SDS011;67620;51.134;6.548;2023-04-07T00:38:39;33.85;;;18.45;;
78344;SDS011;67620;51.134;6.548;2023-04-07T00:41:05;41.60;;;20.25;;
78344;SDS011;67620;51.134;6.548;2023-04-07T00:43:30;35.80;;;19.25;;
78344;SDS011;67620;51.134;6.548;2023-04-07T00:45:56;39.28;;;20.45;;
78344;SDS011;67620;51.134;6.548;2023-04-07T00:48:22;36.08;;;19.85;;
78344;SDS011;67620;51.134;6.548;2023-04-07T00:50:48;34.05;;;19.30;;
78344;SDS011;67620;51.134;6.548;2023-04-07T00:53:13;34.10;;;19.48;;
78344;SDS011;67620;51.134;6.548;2023-04-07T00:55:39;38.20;;;22.38;;
78344;SDS011;67620;51.134;6.548;2023-04-07T00:58:05;41.58;;;21.50;;
78344;SDS011;67620;51.134;6.548;2023-04-07T01:00:31;40.45;;;20.73;;
78344;SDS011;67620;51.134;6.548;2023-04-07T01:03:28;37.67;;;20.63;;
78344;SDS011;67620;51.134;6.548;2023-04-07T01:05:58;38.67;;;19.52;;
78344;SDS011;67620;51.134;6.548;2023-04-07T01:08:29;41.00;;;21.30;;
78344;SDS011;67620;51.134;6.548;2023-04-07T01:11:12;38.47;;;20.67;;
78344;SDS011;67620;51.134;6.548;2023-04-07T01:14:02;41.08;;;21.67;;
78344;SDS011;67620;51.134;6.548;2023-04-07T01:16:31;36.95;;;20.42;;
78344;SDS011;67620;51.134;6.548;2023-04-07T01:19:13;39.92;;;21.90;;
78344;SDS011;67620;51.134;6.548;2023-04-07T01:21:59;42.00;;;21.38;;
78344;SDS011;67620;51.134;6.548;2023-04-07T01:24:30;44.72;;;21.67;;
78344;SDS011;67620;51.134;6.548;2023-04-07T01:27:53;40.45;;;20.48;;
78344;SDS011;67620;51.134;6.548;2023-04-07T01:30:02;38.90;;;20.58;;
78344;SDS011;67620;51.134;6.548;2023-04-07T01:32:29;38.38;;;19.27;;
78344;SDS011;67620;51.134;6.548;2023-04-07T01:34:56;37.78;;;19.63;;
78344;SDS011;67620;51.134;6.548;2023-04-07T01:37:24;39.88;;;20.70;;
78344;SDS011;67620;51.134;6.548;2023-04-07T01:39:52;36.03;;;20.25;;
78344;SDS011;67620;51.134;6.548;2023-04-07T01:42:18;43.20;;;20.77;;
78344;SDS011;67620;51.134;6.548;2023-04-07T01:44:44;39.22;;;20.35;;
78344;SDS011;67620;51.134;6.548;2023-04-07T01:47:11;41.40;;;20.95;;
78344;SDS011;67620;51.134;6.548;2023-04-07T01:49:38;37.83;;;20.85;;
78344;SDS011;67620;51.134;6.548;2023-04-07T01:52:05;40.70;;;21.45;;
78344;SDS011;67620;51.134;6.548;2023-04-07T01:56:57;44.90;;;21.17;;
78344;SDS011;67620;51.134;6.548;2023-04-07T01:59:23;41.50;;;20.05;;
78344;SDS011;67620;51.134;6.548;2023-04-07T02:01:49;44.28;;;21.40;;
78344;SDS011;67620;51.134;6.548;2023-04-07T02:04:24;45.72;;;21.30;;
78344;SDS011;67620;51.134;6.548;2023-04-07T02:06:59;44.30;;;22.38;;
78344;SDS011;67620;51.134;6.548;2023-04-07T02:09:30;43.40;;;21.88;;
78344;SDS011;67620;51.134;6.548;2023-04-07T02:11:57;40.55;;;21.88;;
78344;SDS011;67620;51.134;6.548;2023-04-07T02:14:26;42.20;;;22.25;;
78344;SDS011;67620;51.134;6.548;2023-04-07T02:16:52;44.10;;;21.25;;
78344;SDS011;67620;51.134;6.548;2023-04-07T02:19:18;42.85;;;21.42;;
78344;SDS011;67620;51.134;6.548;2023-04-07T02:21:45;41.05;;;21.30;;
78344;SDS011;67620;51.134;6.548;2023-04-07T02:24:12;40.45;;;20.08;;
78344;SDS011;67620;51.134;6.548;2023-04-07T02:26:38;42.72;;;22.70;;
78344;SDS011;67620;51.134;6.548;2023-04-07T02:29:03;45.13;;;22.05;;
78344;SDS011;67620;51.134;6.548;2023-04-07T02:31:30;42.72;;;20.35;;
78344;SDS011;67620;51.134;6.548;2023-04-07T02:36:21;39.95;;;20.27;;
78344;SDS011;67620;51.134;6.548;2023-04-07T02:38:47;46.90;;;21.85;;
78344;SDS011;67620;51.134;6.548;2023-04-07T02:41:12;45.22;;;21.98;;
78344;SDS011;67620;51.134;6.548;2023-04-07T02:43:38;48.42;;;21.40;;
78344;SDS011;67620;51.134;6.548;2023-04-07T02:46:04;42.60;;;20.42;;
78344;SDS011;67620;51.134;6.548;2023-04-07T02:48:29;45.47;;;21.52;;
78344;SDS011;67620;51.134;6.548;2023-04-07T02:50:55;45.20;;;21.40;;
78344;SDS011;67620;51.134;6.548;2023-04-07T02:53:21;45.42;;;21.90;;
78344;SDS011;67620;51.134;6.548;2023-04-07T02:55:46;40.30;;;21.42;;
78344;SDS011;67620;51.134;6.548;2023-04-07T02:58:12;44.90;;;20.23;;
78344;SDS011;67620;51.134;6.548;2023-04-07T03:00:37;35.92;;;18.58;;
78344;SDS011;67620;51.134;6.548;2023-04-07T03:03:03;37.90;;;21.02;;
78344;SDS011;67620;51.134;6.548;2023-04-07T03:05:28;40.63;;;21.35;;
78344;SDS011;67620;51.134;6.548;2023-04-07T03:07:54;38.45;;;19.77;;
78344;SDS011;67620;51.134;6.548;2023-04-07T03:10:19;43.97;;;21.35;;
78344;SDS011;67620;51.134;6.548;2023-04-07T03:12:45;45.55;;;20.30;;
78344;SDS011;67620;51.134;6.548;2023-04-07T03:15:10;39.90;;;20.27;;
78344;SDS011;67620;51.134;6.548;2023-04-07T03:17:36;42.97;;;20.55;;
78344;SDS011;67620;51.134;6.548;2023-04-07T03:20:01;51.67;;;21.23;;
78344;SDS011;67620;51.134;6.548;2023-04-07T03:22:27;42.22;;;20.75;;
78344;SDS011;67620;51.134;6.548;2023-04-07T03:24:53;39.55;;;20.65;;
78344;SDS011;67620;51.134;6.548;2023-04-07T03:27:18;38.67;;;19.90;;
78344;SDS011;67620;51.134;6.548;2023-04-07T03:29:44;36.90;;;20.92;;
78344;SDS011;67620;51.134;6.548;2023-04-07T03:34:36;38.78;;;19.50;;
78344;SDS011;67620;51.134;6.548;2023-04-07T03:37:01;39.42;;;19.20;;
78344;SDS011;67620;51.134;6.548;2023-04-07T03:39:27;39.28;;;19.70;;
78344;SDS011;67620;51.134;6.548;2023-04-07T03:41:52;38.85;;;20.02;;
78344;SDS011;67620;51.134;6.548;2023-04-07T03:44:18;37.42;;;19.42;;
78344;SDS011;67620;51.134;6.548;2023-04-07T03:46:43;37.22;;;18.30;;
78344;SDS011;67620;51.134;6.548;2023-04-07T03:49:09;39.35;;;18.60;;
78344;SDS011;67620;51.134;6.548;2023-04-07T03:51:35;34.72;;;17.95;;
78344;SDS011;67620;51.134;6.548;2023-04-07T03:54:01;33.10;;;18.38;;
78344;SDS011;67620;51.134;6.548;2023-04-07T03:56:26;36.40;;;17.98;;
78344;SDS011;67620;51.134;6.548;2023-04-07T03:58:52;36.72;;;17.60;;
78344;SDS011;67620;51.134;6.548;2023-04-07T04:01:18;33.90;;;18.27;;
78344;SDS011;67620;51.134;6.548;2023-04-07T04:03:43;29.67;;;15.55;;
78344;SDS011;67620;51.134;6.548;2023-04-07T04:06:09;31.38;;;16.08;;
78344;SDS011;67620;51.134;6.548;2023-04-07T04:08:35;30.15;;;15.13;;
78344;SDS011;67620;51.134;6.548;2023-04-07T04:11:00;27.75;;;15.40;;
78344;SDS011;67620;51.134;6.548;2023-04-07T04:13:26;30.33;;;15.57;;
78344;SDS011;67620;51.134;6.548;2023-04-07T04:15:51;28.17;;;15.70;;
78344;SDS011;67620;51.134;6.548;2023-04-07T04:18:17;26.98;;;15.05;;
78344;SDS011;67620;51.134;6.548;2023-04-07T04:20:43;25.17;;;14.25;;
78344;SDS011;67620;51.134;6.548;2023-04-07T04:23:08;25.90;;;13.57;;
78344;SDS011;67620;51.134;6.548;2023-04-07T04:25:34;23.55;;;13.05;;
78344;SDS011;67620;51.134;6.548;2023-04-07T04:28:00;25.15;;;13.18;;
78344;SDS011;67620;51.134;6.548;2023-04-07T04:30:25;25.65;;;13.02;;
78344;SDS011;67620;51.134;6.548;2023-04-07T04:32:51;26.35;;;13.95;;
78344;SDS011;67620;51.134;6.548;2023-04-07T04:35:17;24.15;;;11.52;;
78344;SDS011;67620;51.134;6.548;2023-04-07T04:37:43;21.27;;;12.70;;
78344;SDS011;67620;51.134;6.548;2023-04-07T04:40:08;19.77;;;11.45;;
78344;SDS011;67620;51.134;6.548;2023-04-07T04:42:35;21.98;;;12.13;;
78344;SDS011;67620;51.134;6.548;2023-04-07T04:45:01;18.38;;;11.43;;
78344;SDS011;67620;51.134;6.548;2023-04-07T04:47:26;21.52;;;11.05;;
78344;SDS011;67620;51.134;6.548;2023-04-07T04:49:52;21.98;;;10.82;;
78344;SDS011;67620;51.134;6.548;2023-04-07T04:52:17;20.65;;;10.52;;
78344;SDS011;67620;51.134;6.548;2023-04-07T04:54:43;19.85;;;10.32;;
78344;SDS011;67620;51.134;6.548;2023-04-07T04:57:09;16.73;;;10.80;;
78344;SDS011;67620;51.134;6.548;2023-04-07T04:59:34;20.00;;;9.90;;
78344;SDS011;67620;51.134;6.548;2023-04-07T05:02:00;23.55;;;11.00;;
78344;SDS011;67620;51.134;6.548;2023-04-07T05:04:25;17.73;;;9.20;;
78344;SDS011;67620;51.134;6.548;2023-04-07T05:06:52;18.77;;;9.77;;
78344;SDS011;67620;51.134;6.548;2023-04-07T05:09:18;18.60;;;9.20;;
78344;SDS011;67620;51.134;6.548;2023-04-07T05:11:43;22.98;;;9.43;;
78344;SDS011;67620;51.134;6.548;2023-04-07T05:14:09;14.32;;;8.10;;
78344;SDS011;67620;51.134;6.548;2023-04-07T05:16:34;14.95;;;7.28;;
78344;SDS011;67620;51.134;6.548;2023-04-07T05:19:00;12.73;;;5.72;;
78344;SDS011;67620;51.134;6.548;2023-04-07T05:21:26;13.20;;;6.65;;
78344;SDS011;67620;51.134;6.548;2023-04-07T05:23:52;12.13;;;6.53;;
78344;SDS011;67620;51.134;6.548;2023-04-07T05:26:17;13.38;;;6.28;;
78344;SDS011;67620;51.134;6.548;2023-04-07T05:28:43;12.30;;;6.00;;
78344;SDS011;67620;51.134;6.548;2023-04-07T05:31:09;11.15;;;5.65;;
78344;SDS011;67620;51.134;6.548;2023-04-07T05:33:34;10.02;;;5.03;;
78344;SDS011;67620;51.134;6.548;2023-04-07T05:36:00;12.13;;;5.55;;
78344;SDS011;67620;51.134;6.548;2023-04-07T05:38:26;9.65;;;5.53;;
78344;SDS011;67620;51.134;6.548;2023-04-07T05:40:51;9.20;;;4.72;;
78344;SDS011;67620;51.134;6.548;2023-04-07T05:43:17;9.43;;;5.40;;
78344;SDS011;67620;51.134;6.548;2023-04-07T05:45:43;8.70;;;4.82;;
78344;SDS011;67620;51.134;6.548;2023-04-07T05:48:08;8.88;;;4.88;;
78344;SDS011;67620;51.134;6.548;2023-04-07T05:50:34;11.65;;;5.35;;
78344;SDS011;67620;51.134;6.548;2023-04-07T05:53:00;12.68;;;6.10;;
78344;SDS011;67620;51.134;6.548;2023-04-07T05:55:25;13.55;;;5.75;;
78344;SDS011;67620;51.134;6.548;2023-04-07T05:57:51;10.00;;;5.47;;
78344;SDS011;67620;51.134;6.548;2023-04-07T06:00:17;11.45;;;5.32;;
78344;SDS011;67620;51.134;6.548;2023-04-07T06:02:43;13.65;;;5.72;;
78344;SDS011;67620;51.134;6.548;2023-04-07T06:05:09;46.03;;;25.98;;
78344;SDS011;67620;51.134;6.548;2023-04-07T06:07:35;13.70;;;6.35;;
78344;SDS011;67620;51.134;6.548;2023-04-07T06:10:01;12.30;;;6.53;;
78344;SDS011;67620;51.134;6.548;2023-04-07T06:12:26;13.35;;;5.72;;
78344;SDS011;67620;51.134;6.548;2023-04-07T06:14:53;10.55;;;5.55;;
78344;SDS011;67620;51.134;6.548;2023-04-07T06:17:19;14.85;;;5.82;;
78344;SDS011;67620;51.134;6.548;2023-04-07T06:19:44;12.02;;;6.13;;
78344;SDS011;67620;51.134;6.548;2023-04-07T06:22:10;12.88;;;6.55;;
78344;SDS011;67620;51.134;6.548;2023-04-07T06:24:36;9.77;;;5.63;;
78344;SDS011;67620;51.134;6.548;2023-04-07T06:27:01;13.90;;;6.45;;
78344;SDS011;67620;51.134;6.548;2023-04-07T06:29:28;11.85;;;5.43;;
78344;SDS011;67620;51.134;6.548;2023-04-07T06:31:54;11.27;;;6.10;;
78344;SDS011;67620;51.134;6.548;2023-04-07T06:34:19;12.30;;;6.25;;
78344;SDS011;67620;51.134;6.548;2023-04-07T06:36:45;13.95;;;6.35;;
78344;SDS011;67620;51.134;6.548;2023-04-07T06:39:11;13.25;;;6.10;;
78344;SDS011;67620;51.134;6.548;2023-04-07T06:41:36;12.15;;;6.43;;
78344;SDS011;67620;51.134;6.548;2023-04-07T06:44:03;13.35;;;6.60;;
78344;SDS011;67620;51.134;6.548;2023-04-07T06:46:29;11.00;;;6.05;;
78344;SDS011;67620;51.134;6.548;2023-04-07T06:48:54;13.52;;;6.63;;
78344;SDS011;67620;51.134;6.548;2023-04-07T06:51:20;15.25;;;7.20;;
78344;SDS011;67620;51.134;6.548;2023-04-07T06:53:45;22.10;;;7.75;;
78344;SDS011;67620;51.134;6.548;2023-04-07T06:56:12;14.10;;;7.18;;
78344;SDS011;67620;51.134;6.548;2023-04-07T06:58:38;14.32;;;7.18;;
78344;SDS011;67620;51.134;6.548;2023-04-07T07:01:04;13.30;;;6.93;;
78344;SDS011;67620;51.134;6.548;2023-04-07T07:03:30;14.05;;;7.18;;
78344;SDS011;67620;51.134;6.548;2023-04-07T07:05:57;15.82;;;7.78;;
78344;SDS011;67620;51.134;6.548;2023-04-07T07:08:24;12.98;;;7.18;;
78344;SDS011;67620;51.134;6.548;2023-04-07T07:10:50;13.45;;;7.45;;
78344;SDS011;67620;51.134;6.548;2023-04-07T07:15:42;16.92;;;7.93;;
78344;SDS011;67620;51.134;6.548;2023-04-07T07:18:08;14.55;;;7.22;;
78344;SDS011;67620;51.134;6.548;2023-04-07T07:20:34;16.00;;;8.10;;
78344;SDS011;67620;51.134;6.548;2023-04-07T07:22:59;18.42;;;8.52;;
78344;SDS011;67620;51.134;6.548;2023-04-07T07:25:25;16.38;;;7.63;;
78344;SDS011;67620;51.134;6.548;2023-04-07T07:27:51;11.77;;;7.13;;
78344;SDS011;67620;51.134;6.548;2023-04-07T07:30:21;13.38;;;6.72;;
78344;SDS011;67620;51.134;6.548;2023-04-07T07:32:47;13.50;;;7.00;;
78344;SDS011;67620;51.134;6.548;2023-04-07T07:35:13;13.65;;;7.20;;
78344;SDS011;67620;51.134;6.548;2023-04-07T07:40:05;14.02;;;6.47;;
78344;SDS011;67620;51.134;6.548;2023-04-07T07:44:57;13.05;;;6.40;;
78344;SDS011;67620;51.134;6.548;2023-04-07T07:47:23;14.85;;;6.50;;
78344;SDS011;67620;51.134;6.548;2023-04-07T07:49:50;13.55;;;6.50;;
78344;SDS011;67620;51.134;6.548;2023-04-07T07:52:15;15.68;;;7.50;;
78344;SDS011;67620;51.134;6.548;2023-04-07T07:54:41;13.57;;;6.70;;
78344;SDS011;67620;51.134;6.548;2023-04-07T07:57:07;12.98;;;6.15;;
78344;SDS011;67620;51.134;6.548;2023-04-07T07:59:32;13.38;;;6.55;;
78344;SDS011;67620;51.134;6.548;2023-04-07T08:01:58;14.73;;;6.72;;
78344;SDS011;67620;51.134;6.548;2023-04-07T08:04:24;14.43;;;6.70;;
78344;SDS011;67620;51.134;6.548;2023-04-07T08:06:50;13.02;;;6.97;;
78344;SDS011;67620;51.134;6.548;2023-04-07T08:09:16;12.90;;;6.03;;
78344;SDS011;67620;51.134;6.548;2023-04-07T08:11:42;11.73;;;6.32;;
78344;SDS011;67620;51.134;6.548;2023-04-07T08:14:08;11.45;;;6.18;;
78344;SDS011;67620;51.134;6.548;2023-04-07T08:16:34;12.23;;;6.30;;
78344;SDS011;67620;51.134;6.548;2023-04-07T08:19:00;17.05;;;7.15;;
78344;SDS011;67620;51.134;6.548;2023-04-07T08:21:25;13.45;;;6.35;;
78344;SDS011;67620;51.134;6.548;2023-04-07T08:23:52;13.85;;;6.60;;
78344;SDS011;67620;51.134;6.548;2023-04-07T08:26:19;15.63;;;7.97;;
78344;SDS011;67620;51.134;6.548;2023-04-07T08:28:45;14.77;;;6.97;;
78344;SDS011;67620;51.134;6.548;2023-04-07T08:31:11;16.40;;;8.00;;
78344;SDS011;67620;51.134;6.548;2023-04-07T08:33:36;15.73;;;7.22;;
78344;SDS011;67620;51.134;6.548;2023-04-07T08:36:02;16.13;;;7.55;;
78344;SDS011;67620;51.134;6.548;2023-04-07T08:38:28;15.93;;;7.75;;
78344;SDS011;67620;51.134;6.548;2023-04-07T08:40:54;17.42;;;7.95;;
78344;SDS011;67620;51.134;6.548;2023-04-07T08:43:25;19.10;;;9.10;;
78344;SDS011;67620;51.134;6.548;2023-04-07T08:45:51;18.83;;;9.50;;
78344;SDS011;67620;51.134;6.548;2023-04-07T08:48:20;18.98;;;9.43;;
78344;SDS011;67620;51.134;6.548;2023-04-07T08:50:49;20.45;;;9.93;;
78344;SDS011;67620;51.134;6.548;2023-04-07T08:53:17;17.40;;;8.82;;
78344;SDS011;67620;51.134;6.548;2023-04-07T08:58:25;23.63;;;11.50;;
78344;SDS011;67620;51.134;6.548;2023-04-07T09:00:51;23.40;;;10.07;;
78344;SDS011;67620;51.134;6.548;2023-04-07T09:03:17;20.35;;;10.43;;
78344;SDS011;67620;51.134;6.548;2023-04-07T09:05:44;24.08;;;10.13;;
78344;SDS011;67620;51.134;6.548;2023-04-07T09:08:10;21.63;;;10.60;;
78344;SDS011;67620;51.134;6.548;2023-04-07T09:10:36;25.20;;;10.45;;
78344;SDS011;67620;51.134;6.548;2023-04-07T09:13:01;20.13;;;10.10;;
78344;SDS011;67620;51.134;6.548;2023-04-07T09:15:30;23.38;;;9.65;;
78344;SDS011;67620;51.134;6.548;2023-04-07T09:17:56;32.30;;;11.15;;
78344;SDS011;67620;51.134;6.548;2023-04-07T09:20:22;22.08;;;9.45;;
78344;SDS011;67620;51.134;6.548;2023-04-07T09:22:49;20.65;;;10.15;;
78344;SDS011;67620;51.134;6.548;2023-04-07T09:25:18;23.63;;;10.43;;
78344;SDS011;67620;51.134;6.548;2023-04-07T09:27:57;18.00;;;9.70;;
78344;SDS011;67620;51.134;6.548;2023-04-07T09:30:24;21.88;;;9.48;;
78344;SDS011;67620;51.134;6.548;2023-04-07T09:32:50;20.30;;;9.55;;
78344;SDS011;67620;51.134;6.548;2023-04-07T09:35:16;17.27;;;10.00;;
78344;SDS011;67620;51.134;6.548;2023-04-07T09:37:42;17.90;;;9.55;;
78344;SDS011;67620;51.134;6.548;2023-04-07T09:40:08;18.83;;;9.90;;
78344;SDS011;67620;51.134;6.548;2023-04-07T09:45:08;17.95;;;9.15;;
78344;SDS011;67620;51.134;6.548;2023-04-07T09:47:34;20.10;;;9.10;;
78344;SDS011;67620;51.134;6.548;2023-04-07T09:50:00;17.23;;;8.75;;
78344;SDS011;67620;51.134;6.548;2023-04-07T09:55:19;16.58;;;9.18;;
78344;SDS011;67620;51.134;6.548;2023-04-07T09:57:47;18.42;;;8.65;;
78344;SDS011;67620;51.134;6.548;2023-04-07T10:00:17;20.42;;;9.15;;
78344;SDS011;67620;51.134;6.548;2023-04-07T10:02:43;17.27;;;8.40;;
78344;SDS011;67620;51.134;6.548;2023-04-07T10:05:10;15.43;;;8.77;;
78344;SDS011;67620;51.134;6.548;2023-04-07T10:07:36;23.92;;;9.32;;
78344;SDS011;67620;51.134;6.548;2023-04-07T10:10:02;19.42;;;9.30;;
78344;SDS011;67620;51.134;6.548;2023-04-07T10:12:28;20.58;;;9.15;;
78344;SDS011;67620;51.134;6.548;2023-04-07T10:14:56;21.90;;;11.38;;
78344;SDS011;67620;51.134;6.548;2023-04-07T10:17:24;17.85;;;9.15;;
78344;SDS011;67620;51.134;6.548;2023-04-07T10:19:52;18.00;;;9.38;;
78344;SDS011;67620;51.134;6.548;2023-04-07T10:22:18;22.10;;;9.90;;
78344;SDS011;67620;51.134;6.548;2023-04-07T10:24:50;19.15;;;8.80;;
78344;SDS011;67620;51.134;6.548;2023-04-07T10:27:18;16.52;;;8.85;;
78344;SDS011;67620;51.134;6.548;2023-04-07T10:29:48;19.27;;;8.43;;
78344;SDS011;67620;51.134;6.548;2023-04-07T10:32:16;14.15;;;7.90;;
78344;SDS011;67620;51.134;6.548;2023-04-07T10:37:19;22.90;;;9.15;;
78344;SDS011;67620;51.134;6.548;2023-04-07T10:39:50;28.15;;;10.32;;
78344;SDS011;67620;51.134;6.548;2023-04-07T10:45:05;24.50;;;10.30;;
78344;SDS011;67620;51.134;6.548;2023-04-07T10:47:33;20.17;;;9.88;;
78344;SDS011;67620;51.134;6.548;2023-04-07T10:50:19;19.38;;;9.20;;
78344;SDS011;67620;51.134;6.548;2023-04-07T10:52:47;16.58;;;9.20;;
78344;SDS011;67620;51.134;6.548;2023-04-07T10:55:30;18.65;;;8.50;;
78344;SDS011;67620;51.134;6.548;2023-04-07T10:58:11;17.60;;;9.68;;
78344;SDS011;67620;51.134;6.548;2023-04-07T11:03:21;25.92;;;9.95;;
78344;SDS011;67620;51.134;6.548;2023-04-07T11:05:48;20.25;;;8.88;;
78344;SDS011;67620;51.134;6.548;2023-04-07T11:08:13;13.48;;;7.50;;
78344;SDS011;67620;51.134;6.548;2023-04-07T11:10:39;15.93;;;7.78;;
78344;SDS011;67620;51.134;6.548;2023-04-07T11:13:11;13.32;;;7.15;;
78344;SDS011;67620;51.134;6.548;2023-04-07T11:15:37;15.25;;;7.72;;
78344;SDS011;67620;51.134;6.548;2023-04-07T11:18:06;17.92;;;7.45;;
78344;SDS011;67620;51.134;6.548;2023-04-07T11:20:41;13.90;;;7.30;;
78344;SDS011;67620;51.134;6.548;2023-04-07T11:23:08;13.75;;;7.20;;
78344;SDS011;67620;51.134;6.548;2023-04-07T11:25:34;13.27;;;6.97;;
78344;SDS011;67620;51.134;6.548;2023-04-07T11:28:02;18.77;;;9.00;;
78344;SDS011;67620;51.134;6.548;2023-04-07T11:30:28;22.00;;;10.27;;
78344;SDS011;67620;51.134;6.548;2023-04-07T11:32:54;20.17;;;9.93;;
78344;SDS011;67620;51.134;6.548;2023-04-07T11:35:21;25.35;;;11.85;;
78344;SDS011;67620;51.134;6.548;2023-04-07T11:37:47;19.27;;;10.98;;
78344;SDS011;67620;51.134;6.548;2023-04-07T11:40:21;21.70;;;11.30;;
78344;SDS011;67620;51.134;6.548;2023-04-07T11:42:59;19.20;;;10.70;;
78344;SDS011;67620;51.134;6.548;2023-04-07T11:45:26;21.75;;;10.77;;
78344;SDS011;67620;51.134;6.548;2023-04-07T11:47:51;24.42;;;10.45;;
78344;SDS011;67620;51.134;6.548;2023-04-07T11:50:36;19.70;;;9.85;;
78344;SDS011;67620;51.134;6.548;2023-04-07T11:53:06;21.40;;;9.82;;
78344;SDS011;67620;51.134;6.548;2023-04-07T11:55:32;19.65;;;10.45;;
78344;SDS011;67620;51.134;6.548;2023-04-07T11:58:05;23.70;;;11.52;;
78344;SDS011;67620;51.134;6.548;2023-04-07T12:00:34;20.77;;;11.75;;
78344;SDS011;67620;51.134;6.548;2023-04-07T12:03:09;18.50;;;9.90;;
78344;SDS011;67620;51.134;6.548;2023-04-07T12:05:42;26.38;;;10.98;;
78344;SDS011;67620;51.134;6.548;2023-04-07T12:08:08;18.63;;;9.80;;
78344;SDS011;67620;51.134;6.548;2023-04-07T12:10:34;26.40;;;10.95;;
78344;SDS011;67620;51.134;6.548;2023-04-07T12:12:59;17.52;;;9.65;;
78344;SDS011;67620;51.134;6.548;2023-04-07T12:15:26;17.23;;;9.43;;
78344;SDS011;67620;51.134;6.548;2023-04-07T12:17:51;17.75;;;9.23;;
78344;SDS011;67620;51.134;6.548;2023-04-07T12:20:19;15.95;;;8.75;;
78344;SDS011;67620;51.134;6.548;2023-04-07T12:22:44;17.77;;;9.38;;
78344;SDS011;67620;51.134;6.548;2023-04-07T12:25:10;16.75;;;9.20;;
78344;SDS011;67620;51.134;6.548;2023-04-07T12:27:36;14.70;;;8.30;;
78344;SDS011;67620;51.134;6.548;2023-04-07T12:30:01;16.85;;;9.38;;
78344;SDS011;67620;51.134;6.548;2023-04-07T12:32:28;18.35;;;8.57;;
78344;SDS011;67620;51.134;6.548;2023-04-07T12:34:53;15.63;;;8.10;;
78344;SDS011;67620;51.134;6.548;2023-04-07T12:37:19;17.08;;;8.55;;
78344;SDS011;67620;51.134;6.548;2023-04-07T12:39:45;12.10;;;7.35;;
78344;SDS011;67620;51.134;6.548;2023-04-07T12:42:10;16.83;;;7.43;;
78344;SDS011;67620;51.134;6.548;2023-04-07T12:44:36;11.98;;;7.30;;
78344;SDS011;67620;51.134;6.548;2023-04-07T12:49:27;13.27;;;7.30;;
78344;SDS011;67620;51.134;6.548;2023-04-07T12:51:53;15.40;;;8.07;;
78344;SDS011;67620;51.134;6.548;2023-04-07T12:54:19;17.85;;;8.50;;
78344;SDS011;67620;51.134;6.548;2023-04-07T12:59:11;14.80;;;7.53;;
78344;SDS011;67620;51.134;6.548;2023-04-07T13:01:37;11.80;;;6.47;;
78344;SDS011;67620;51.134;6.548;2023-04-07T13:04:03;13.05;;;7.45;;
78344;SDS011;67620;51.134;6.548;2023-04-07T13:06:29;14.23;;;7.18;;
78344;SDS011;67620;51.134;6.548;2023-04-07T13:08:55;17.30;;;7.32;;
78344;SDS011;67620;51.134;6.548;2023-04-07T13:11:21;15.88;;;8.38;;
78344;SDS011;67620;51.134;6.548;2023-04-07T13:13:47;16.00;;;7.85;;
78344;SDS011;67620;51.134;6.548;2023-04-07T13:16:12;19.23;;;7.63;;
78344;SDS011;67620;51.134;6.548;2023-04-07T13:18:38;15.93;;;8.13;;
78344;SDS011;67620;51.134;6.548;2023-04-07T13:21:04;12.70;;;6.85;;
78344;SDS011;67620;51.134;6.548;2023-04-07T13:23:29;11.30;;;7.18;;
78344;SDS011;67620;51.134;6.548;2023-04-07T13:25:55;14.23;;;7.78;;
78344;SDS011;67620;51.134;6.548;2023-04-07T13:28:21;13.23;;;6.85;;
78344;SDS011;67620;51.134;6.548;2023-04-07T13:30:46;18.92;;;7.93;;
78344;SDS011;67620;51.134;6.548;2023-04-07T13:33:12;17.15;;;7.28;;
78344;SDS011;67620;51.134;6.548;2023-04-07T13:35:38;11.80;;;6.47;;
78344;SDS011;67620;51.134;6.548;2023-04-07T13:38:03;12.45;;;7.43;;
78344;SDS011;67620;51.134;6.548;2023-04-07T13:40:29;9.05;;;6.18;;
78344;SDS011;67620;51.134;6.548;2023-04-07T13:42:55;12.20;;;7.10;;
78344;SDS011;67620;51.134;6.548;2023-04-07T13:47:47;13.07;;;7.00;;
78344;SDS011;67620;51.134;6.548;2023-04-07T13:50:12;19.75;;;10.57;;
78344;SDS011;67620;51.134;6.548;2023-04-07T13:52:38;20.52;;;9.95;;
78344;SDS011;67620;51.134;6.548;2023-04-07T13:55:04;14.38;;;7.13;;
78344;SDS011;67620;51.134;6.548;2023-04-07T13:57:30;13.50;;;7.00;;
78344;SDS011;67620;51.134;6.548;2023-04-07T13:59:56;12.30;;;6.72;;
78344;SDS011;67620;51.134;6.548;2023-04-07T14:02:22;14.38;;;8.98;;
78344;SDS011;67620;51.134;6.548;2023-04-07T14:04:48;17.48;;;8.63;;
78344;SDS011;67620;51.134;6.548;2023-04-07T14:07:14;15.00;;;7.45;;
78344;SDS011;67620;51.134;6.548;2023-04-07T14:09:40;13.35;;;7.50;;
78344;SDS011;67620;51.134;6.548;2023-04-07T14:12:06;13.60;;;7.57;;
78344;SDS011;67620;51.134;6.548;2023-04-07T14:14:32;13.25;;;7.43;;
78344;SDS011;67620;51.134;6.548;2023-04-07T14:16:58;12.02;;;7.65;;
78344;SDS011;67620;51.134;6.548;2023-04-07T14:19:24;14.57;;;7.97;;
78344;SDS011;67620;51.134;6.548;2023-04-07T14:21:50;11.95;;;7.20;;
78344;SDS011;67620;51.134;6.548;2023-04-07T14:24:16;12.48;;;7.35;;
78344;SDS011;67620;51.134;6.548;2023-04-07T14:26:42;15.23;;;8.02;;
78344;SDS011;67620;51.134;6.548;2023-04-07T14:29:08;15.90;;;7.35;;
78344;SDS011;67620;51.134;6.548;2023-04-07T14:31:35;13.95;;;6.65;;
78344;SDS011;67620;51.134;6.548;2023-04-07T14:34:01;12.43;;;6.20;;
78344;SDS011;67620;51.134;6.548;2023-04-07T14:36:27;13.98;;;6.32;;
78344;SDS011;67620;51.134;6.548;2023-04-07T14:38:53;12.98;;;7.00;;
78344;SDS011;67620;51.134;6.548;2023-04-07T14:41:19;13.32;;;6.15;;
78344;SDS011;67620;51.134;6.548;2023-04-07T14:43:45;13.60;;;6.88;;
78344;SDS011;67620;51.134;6.548;2023-04-07T14:46:12;12.55;;;6.88;;
78344;SDS011;67620;51.134;6.548;2023-04-07T14:48:38;10.98;;;6.20;;
78344;SDS011;67620;51.134;6.548;2023-04-07T14:51:09;12.57;;;6.07;;
78344;SDS011;67620;51.134;6.548;2023-04-07T14:53:36;12.45;;;6.90;;
78344;SDS011;67620;51.134;6.548;2023-04-07T14:56:03;13.82;;;6.32;;
78344;SDS011;67620;51.134;6.548;2023-04-07T14:58:30;15.60;;;6.78;;
78344;SDS011;67620;51.134;6.548;2023-04-07T15:00:56;15.27;;;7.03;;
78344;SDS011;67620;51.134;6.548;2023-04-07T15:03:21;16.05;;;7.75;;
78344;SDS011;67620;51.134;6.548;2023-04-07T15:05:47;12.48;;;6.95;;